Terminal Aerodrome Forecast
Issued by NWS

Home | Current Version | Previous Version | Text Only | Print | Product List | Glossary On
Versions: 1 2 3 4 5 6 7 8 9 10 11 12 13 14 15 16 17 18 19 20 21 22 23 24 25 26 27 28 29 30 31 32 33 34 35 36 37 38 39 40
000
FTUS43 KLOT 122200 AAC
TAFORD
TAF AMD
KORD 122200Z 1222/1324 21012G18KT P6SM SCT015 BKN100
     FM130100 21010G16KT P6SM VCTS BKN040CB
     FM130300 26010KT 3SM TSRA SCT015 OVC035CB
     FM130700 30008KT P6SM SCT020 OVC040=

USA.gov is the U.S. government's official web portal to all federal, state and local government web resources and services.